createdAt,value
2023-04-18T00:01:50.936Z,33.20
2023-04-18T00:04:18.936Z,33.04
2023-04-18T00:06:50.162Z,32.87
2023-04-18T00:09:17.071Z,32.76
2023-04-18T00:11:44.000Z,32.61
2023-04-18T00:14:10.918Z,32.77
2023-04-18T00:16:38.873Z,32.66
2023-04-18T00:19:05.995Z,32.46
2023-04-18T00:21:33.341Z,32.64
2023-04-18T00:24:00.140Z,32.62
2023-04-18T00:26:27.919Z,32.61
2023-04-18T00:28:54.840Z,32.70
2023-04-18T00:31:21.740Z,32.95
2023-04-18T00:33:48.698Z,32.93
2023-04-18T00:36:15.738Z,32.89
2023-04-18T00:38:42.563Z,33.02
2023-04-18T00:41:09.308Z,33.22
2023-04-18T00:43:37.431Z,33.16
2023-04-18T00:46:04.304Z,33.36
2023-04-18T00:48:31.110Z,33.58
2023-04-18T00:50:58.254Z,33.35
2023-04-18T00:53:24.962Z,33.50
2023-04-18T00:55:51.786Z,33.77
2023-04-18T00:58:18.644Z,33.80
2023-04-18T01:00:45.875Z,33.92
2023-04-18T01:03:14.667Z,34.35
2023-04-18T01:05:41.800Z,33.96
2023-04-18T01:08:08.595Z,34.25
2023-04-18T01:10:35.956Z,34.29
2023-04-18T01:13:15.302Z,34.44
2023-04-18T01:15:46.585Z,34.56
2023-04-18T01:18:13.626Z,34.74
2023-04-18T01:20:44.065Z,34.97
2023-04-18T01:23:10.863Z,34.86
2023-04-18T01:25:37.866Z,35.16
2023-04-18T01:28:05.054Z,35.35
2023-04-18T01:30:32.505Z,35.20
2023-04-18T01:33:01.453Z,35.30
2023-04-18T01:35:28.637Z,35.55
2023-04-18T01:37:55.671Z,35.44
2023-04-18T01:40:22.655Z,35.49
2023-04-18T01:42:49.405Z,35.43
2023-04-18T01:45:16.388Z,35.41
2023-04-18T01:47:43.884Z,35.64
2023-04-18T01:50:10.995Z,35.35
2023-04-18T01:52:37.740Z,35.45
2023-04-18T01:55:06.278Z,35.30
2023-04-18T01:57:34.088Z,35.26
2023-04-18T02:00:00.890Z,35.23
2023-04-18T02:02:27.893Z,35.03
2023-04-18T02:04:54.768Z,35.10
2023-04-18T02:07:21.702Z,34.94
2023-04-18T02:09:48.531Z,35.14
2023-04-18T02:12:15.321Z,35.38
2023-04-18T02:14:42.112Z,35.32
2023-04-18T02:17:08.957Z,35.53
2023-04-18T02:19:35.874Z,35.33
2023-04-18T02:22:02.650Z,35.57
2023-04-18T02:24:29.557Z,35.65
2023-04-18T02:26:56.298Z,35.49
2023-04-18T02:29:23.198Z,35.64
2023-04-18T02:31:50.184Z,35.25
2023-04-18T02:34:16.954Z,35.34
2023-04-18T02:36:43.722Z,35.20
2023-04-18T02:39:10.592Z,34.72
2023-04-18T02:41:39.374Z,34.59
2023-04-18T02:44:07.272Z,34.22
2023-04-18T02:46:34.253Z,34.37
2023-04-18T02:49:01.055Z,33.95
2023-04-18T02:51:28.159Z,33.81
2023-04-18T02:53:56.081Z,33.54
2023-04-18T02:56:22.991Z,33.26
2023-04-18T02:58:50.037Z,32.86
2023-04-18T03:01:17.726Z,32.70
2023-04-18T03:03:44.939Z,32.75
2023-04-18T03:06:11.673Z,32.40
2023-04-18T03:08:39.015Z,31.96
2023-04-18T03:11:05.737Z,31.69
2023-04-18T03:13:33.134Z,31.48
2023-04-18T03:16:00.257Z,31.29
2023-04-18T03:18:27.009Z,31.18
2023-04-18T03:20:53.748Z,30.79
2023-04-18T03:23:20.684Z,30.79
2023-04-18T03:25:47.468Z,30.75
2023-04-18T03:28:14.190Z,30.57
2023-04-18T03:30:41.121Z,30.32
2023-04-18T03:33:08.701Z,30.29
2023-04-18T03:35:35.461Z,30.13
2023-04-18T03:38:02.310Z,29.97
2023-04-18T03:40:29.105Z,29.93
2023-04-18T03:42:55.816Z,29.85
2023-04-18T03:45:22.736Z,29.70
2023-04-18T03:47:50.273Z,29.47
2023-04-18T03:50:17.133Z,29.05
2023-04-18T03:52:43.914Z,29.34
2023-04-18T03:55:11.508Z,28.88
2023-04-18T03:57:38.871Z,28.94
2023-04-18T04:00:08.402Z,28.64
2023-04-18T04:02:35.300Z,28.59
2023-04-18T04:05:02.816Z,28.35
2023-04-18T04:07:29.738Z,27.93
2023-04-18T04:09:56.541Z,27.84
2023-04-18T04:12:23.325Z,27.96
2023-04-18T04:14:50.165Z,28.02
2023-04-18T04:17:16.895Z,27.73
2023-04-18T04:19:43.625Z,27.80
2023-04-18T04:22:10.793Z,27.64
2023-04-18T04:24:40.392Z,27.65
2023-04-18T04:27:07.121Z,27.24
2023-04-18T04:29:35.458Z,27.20
2023-04-18T04:32:02.327Z,27.50
2023-04-18T04:34:29.139Z,27.27
2023-04-18T04:36:55.985Z,27.00
2023-04-18T04:39:22.721Z,26.88
2023-04-18T04:41:49.551Z,26.94
2023-04-18T04:44:17.973Z,26.96
2023-04-18T04:46:45.020Z,26.87
2023-04-18T04:49:12.153Z,26.80
2023-04-18T04:51:39.967Z,26.70
2023-04-18T04:54:56.435Z,26.58
2023-04-18T04:57:23.271Z,26.26
2023-04-18T04:59:49.987Z,26.17
2023-04-18T05:02:16.986Z,25.66
2023-04-18T05:04:44.566Z,25.95
2023-04-18T05:07:11.298Z,25.34
2023-04-18T05:09:38.750Z,25.64
2023-04-18T05:12:05.845Z,25.27
2023-04-18T05:14:32.662Z,24.90
2023-04-18T05:16:59.428Z,24.97
2023-04-18T05:19:26.347Z,24.48
2023-04-18T05:21:53.158Z,24.41
2023-04-18T05:24:19.899Z,24.34
2023-04-18T05:26:46.833Z,24.33
2023-04-18T05:29:13.687Z,23.74
2023-04-18T05:31:40.430Z,23.63
2023-04-18T05:34:07.233Z,23.92
2023-04-18T05:36:34.030Z,23.55
2023-04-18T05:39:00.754Z,23.85
2023-04-18T05:41:27.568Z,23.47
2023-04-18T05:44:04.269Z,22.80
2023-04-18T05:46:32.186Z,23.13
2023-04-18T05:48:59.156Z,23.13
2023-04-18T05:51:26.865Z,22.72
2023-04-18T05:53:53.762Z,22.59
2023-04-18T05:56:20.826Z,22.68
2023-04-18T05:58:47.977Z,22.78
2023-04-18T06:01:14.919Z,22.66
2023-04-18T06:03:42.525Z,22.12
2023-04-18T06:06:09.692Z,22.36
2023-04-18T06:08:38.435Z,22.18
2023-04-18T06:11:05.235Z,21.98
2023-04-18T06:13:32.226Z,22.03
2023-04-18T06:15:59.173Z,21.90
2023-04-18T06:18:25.934Z,21.94
2023-04-18T06:20:52.959Z,22.03
2023-04-18T06:23:19.763Z,21.79
2023-04-18T06:25:46.474Z,21.60
2023-04-18T06:28:13.216Z,21.68
2023-04-18T06:30:40.157Z,21.67
2023-04-18T06:33:10.488Z,21.43
2023-04-18T06:35:37.421Z,21.13
2023-04-18T06:38:04.378Z,21.28
2023-04-18T06:40:31.221Z,20.98
2023-04-18T06:42:57.961Z,20.98
2023-04-18T06:45:24.837Z,21.15
2023-04-18T06:47:52.631Z,20.61
2023-04-18T06:50:19.397Z,20.64
2023-04-18T06:52:46.336Z,20.71
2023-04-18T06:55:14.559Z,20.03
2023-04-18T06:57:41.806Z,20.66
2023-04-18T07:00:10.357Z,20.23
2023-04-18T07:02:37.991Z,20.03
2023-04-18T07:05:05.451Z,21.18
2023-04-18T07:07:33.214Z,20.31
2023-04-18T07:10:00.036Z,21.08
2023-04-18T07:12:27.384Z,21.74
2023-04-18T07:14:54.781Z,21.50
2023-04-18T07:17:21.572Z,21.48
2023-04-18T07:19:48.506Z,21.47
2023-04-18T07:22:15.431Z,21.80
2023-04-18T07:24:42.484Z,21.67
2023-04-18T07:27:09.685Z,21.12
2023-04-18T07:29:36.714Z,20.93
2023-04-18T07:32:03.570Z,21.09
2023-04-18T07:34:30.588Z,21.28
2023-04-18T07:36:57.824Z,21.31
2023-04-18T07:39:24.549Z,20.92
2023-04-18T07:41:51.314Z,19.74
2023-04-18T07:44:18.723Z,19.31
2023-04-18T07:46:46.393Z,19.26
2023-04-18T07:49:16.044Z,19.38
2023-04-18T07:51:43.214Z,19.21
2023-04-18T07:54:11.303Z,19.33
2023-04-18T07:56:38.216Z,19.15
2023-04-18T07:59:05.133Z,19.16
2023-04-18T08:01:31.865Z,19.03
2023-04-18T08:04:01.813Z,19.23
2023-04-18T08:06:29.308Z,19.20
2023-04-18T08:08:56.166Z,19.25
2023-04-18T08:11:23.057Z,19.31
2023-04-18T08:13:50.032Z,19.64
2023-04-18T08:16:17.473Z,19.77
2023-04-18T08:18:44.550Z,19.63
2023-04-18T08:21:11.618Z,19.50
2023-04-18T08:23:38.579Z,19.47
2023-04-18T08:26:05.548Z,19.60
2023-04-18T08:28:32.451Z,19.67
2023-04-18T08:30:59.237Z,19.98
2023-04-18T08:33:26.494Z,19.75
2023-04-18T08:35:53.442Z,19.68
2023-04-18T08:38:20.238Z,19.52
2023-04-18T08:40:47.284Z,19.53
2023-04-18T08:43:15.206Z,20.22
2023-04-18T08:45:43.192Z,19.72
2023-04-18T08:48:16.843Z,19.67
2023-04-18T08:50:43.919Z,20.29
2023-04-18T08:53:11.117Z,20.03
2023-04-18T08:55:38.296Z,19.77
2023-04-18T08:58:07.058Z,19.52
2023-04-18T09:00:34.325Z,20.27
2023-04-18T09:03:03.792Z,20.69
2023-04-18T09:05:31.056Z,20.73
2023-04-18T09:07:57.865Z,21.65
2023-04-18T09:10:32.867Z,21.32
2023-04-18T09:13:01.154Z,20.17
2023-04-18T09:15:29.345Z,20.30
2023-04-18T09:17:58.139Z,20.39
2023-04-18T09:20:38.063Z,20.78
2023-04-18T09:23:06.366Z,21.17
2023-04-18T09:25:43.304Z,20.74
2023-04-18T09:28:28.137Z,21.18
2023-04-18T09:31:11.986Z,20.36
2023-04-18T09:33:41.487Z,20.55
2023-04-18T09:36:21.104Z,21.03
2023-04-18T09:38:48.698Z,20.56
2023-04-18T09:41:21.210Z,20.86
2023-04-18T09:43:48.541Z,20.84
2023-04-18T09:46:17.696Z,20.75
2023-04-18T09:48:44.811Z,20.77
2023-04-18T09:51:16.151Z,20.43
2023-04-18T09:53:47.825Z,20.32
2023-04-18T09:56:27.682Z,20.58
2023-04-18T09:59:02.648Z,20.06
2023-04-18T10:01:29.989Z,20.75
2023-04-18T10:03:56.884Z,19.83
2023-04-18T10:06:23.654Z,20.13
2023-04-18T10:08:50.547Z,20.07
2023-04-18T10:11:18.656Z,20.49
2023-04-18T10:13:47.859Z,20.16
2023-04-18T10:16:14.826Z,20.25
2023-04-18T10:18:42.315Z,21.21
2023-04-18T10:21:09.332Z,21.64
2023-04-18T10:23:39.825Z,21.32
2023-04-18T10:26:07.686Z,21.26
2023-04-18T10:28:57.426Z,20.47
2023-04-18T10:31:28.412Z,20.54
2023-04-18T10:34:17.863Z,20.43
2023-04-18T10:37:04.403Z,20.58
2023-04-18T10:39:31.336Z,19.78
2023-04-18T10:41:58.136Z,19.51
2023-04-18T10:44:25.040Z,20.02
2023-04-18T10:46:51.968Z,19.98
2023-04-18T10:49:23.352Z,19.68
2023-04-18T10:51:56.279Z,19.42
2023-04-18T10:54:42.200Z,19.55
2023-04-18T10:57:10.364Z,19.12
2023-04-18T10:59:41.949Z,19.41
2023-04-18T11:02:21.307Z,19.54
2023-04-18T11:04:52.042Z,19.04
2023-04-18T11:07:18.933Z,18.31
2023-04-18T11:09:55.132Z,18.90
2023-04-18T11:12:22.509Z,18.05
2023-04-18T11:14:50.407Z,18.22
2023-04-18T11:17:22.264Z,17.45
2023-04-18T11:19:49.877Z,17.26
2023-04-18T11:22:17.152Z,17.24
2023-04-18T11:24:44.964Z,16.96
2023-04-18T11:27:12.422Z,17.32
2023-04-18T11:29:39.223Z,17.44
2023-04-18T11:32:07.448Z,17.33
2023-04-18T11:34:34.325Z,17.30
2023-04-18T11:37:01.204Z,16.85
2023-04-18T11:39:28.280Z,17.54
2023-04-18T11:41:57.204Z,17.05
2023-04-18T11:44:24.756Z,17.42
2023-04-18T11:46:52.310Z,17.42
2023-04-18T11:49:29.024Z,16.61
2023-04-18T11:51:56.162Z,16.68
2023-04-18T11:54:42.708Z,16.49
2023-04-18T11:57:26.450Z,16.48
2023-04-18T11:59:57.763Z,16.91
2023-04-18T12:02:39.251Z,15.33
2023-04-18T12:05:06.671Z,15.15
2023-04-18T12:07:37.947Z,14.51
2023-04-18T12:10:07.185Z,14.38
2023-04-18T12:12:34.048Z,14.77
2023-04-18T12:15:06.632Z,14.45
2023-04-18T12:17:33.700Z,14.94
2023-04-18T12:20:10.155Z,15.02
2023-04-18T12:22:42.086Z,14.75
2023-04-18T12:25:27.305Z,14.52
2023-04-18T12:27:57.413Z,13.77
2023-04-18T12:30:31.213Z,13.23
2023-04-18T12:32:59.619Z,12.61
2023-04-18T12:35:26.609Z,12.96
2023-04-18T12:37:54.809Z,14.06
2023-04-18T12:40:23.138Z,14.18
2023-04-18T12:42:50.738Z,13.74
2023-04-18T12:45:18.199Z,13.98
2023-04-18T12:47:46.433Z,13.50
2023-04-18T12:50:23.887Z,13.01
2023-04-18T12:52:52.464Z,12.70
2023-04-18T12:55:19.363Z,12.47
2023-04-18T12:57:46.151Z,12.24
2023-04-18T13:00:14.181Z,12.14
2023-04-18T13:02:41.688Z,12.93
2023-04-18T13:05:09.662Z,13.03
2023-04-18T13:07:40.753Z,12.58
2023-04-18T13:10:08.994Z,12.40
2023-04-18T13:12:36.002Z,13.50
2023-04-18T13:15:03.898Z,13.48
2023-04-18T13:17:30.859Z,14.42
2023-04-18T13:19:57.623Z,14.67
2023-04-18T13:22:24.819Z,14.88
2023-04-18T13:24:58.931Z,15.08
2023-04-18T13:27:25.836Z,15.25
2023-04-18T13:29:52.907Z,16.20
2023-04-18T13:32:19.818Z,16.65
2023-04-18T13:34:47.050Z,16.73
2023-04-18T13:37:16.988Z,16.51
2023-04-18T13:39:43.869Z,17.13
2023-04-18T13:42:10.648Z,17.32
2023-04-18T13:44:37.817Z,17.95
2023-04-18T13:47:05.950Z,17.92
2023-04-18T13:49:33.463Z,18.42
2023-04-18T13:52:00.981Z,19.13
2023-04-18T13:54:28.700Z,19.42
2023-04-18T13:56:57.325Z,19.88
2023-04-18T13:59:27.620Z,20.17
2023-04-18T14:01:54.751Z,20.67
2023-04-18T14:04:22.517Z,20.71
2023-04-18T14:06:49.816Z,21.44
2023-04-18T14:09:17.342Z,21.80
2023-04-18T14:11:44.617Z,21.70
2023-04-18T14:14:11.330Z,21.82
2023-04-18T14:16:38.195Z,22.41
2023-04-18T14:19:04.965Z,22.42
2023-04-18T14:21:31.766Z,22.93
2023-04-18T14:23:58.642Z,22.98
2023-04-18T14:26:25.673Z,22.96
2023-04-18T14:28:52.501Z,23.10
2023-04-18T14:31:19.429Z,23.32
2023-04-18T14:33:46.447Z,23.63
2023-04-18T14:36:15.048Z,23.60
2023-04-18T14:38:42.360Z,23.90
2023-04-18T14:41:09.095Z,23.83
2023-04-18T14:43:36.022Z,23.59
2023-04-18T14:46:02.881Z,23.18
2023-04-18T14:48:30.113Z,22.95
2023-04-18T14:50:57.860Z,22.91
2023-04-18T14:53:25.251Z,22.92
2023-04-18T14:55:52.350Z,22.56
2023-04-18T14:58:19.121Z,22.43
2023-04-18T15:00:45.953Z,22.88
2023-04-18T15:03:12.886Z,22.73
2023-04-18T15:05:43.059Z,22.86
2023-04-18T15:08:11.591Z,23.18
2023-04-18T15:10:40.170Z,22.74
2023-04-18T15:13:06.910Z,22.45
2023-04-18T15:15:38.031Z,23.15
2023-04-18T15:18:04.940Z,22.79
2023-04-18T15:20:31.804Z,22.88
2023-04-18T15:22:58.678Z,22.59
2023-04-18T15:25:26.206Z,23.10
2023-04-18T15:27:53.051Z,22.51
2023-04-18T15:30:20.246Z,22.36
2023-04-18T15:32:48.552Z,22.19
2023-04-18T15:35:15.453Z,22.20
2023-04-18T15:37:42.354Z,22.23
2023-04-18T15:40:11.332Z,22.07
2023-04-18T15:42:39.132Z,22.35
2023-04-18T15:45:06.830Z,22.56
2023-04-18T15:47:34.547Z,22.46
2023-04-18T15:50:01.403Z,22.16
2023-04-18T15:52:28.301Z,22.76
2023-04-18T15:54:57.346Z,22.76
2023-04-18T15:57:24.333Z,23.02
2023-04-18T15:59:51.235Z,22.54
2023-04-18T16:02:18.154Z,22.78
2023-04-18T16:04:45.206Z,22.87
2023-04-18T16:07:12.237Z,23.38
2023-04-18T16:09:39.031Z,23.33
2023-04-18T16:12:07.338Z,23.27
2023-04-18T16:14:34.287Z,23.39
2023-04-18T16:17:01.086Z,23.41
2023-04-18T16:19:27.901Z,23.36
2023-04-18T16:21:54.791Z,23.60
2023-04-18T16:24:21.512Z,23.64
2023-04-18T16:26:48.393Z,23.78
2023-04-18T16:29:15.260Z,23.68
2023-04-18T16:31:43.269Z,24.07
2023-04-18T16:34:10.051Z,23.83
2023-04-18T16:36:36.924Z,23.79
2023-04-18T16:39:04.783Z,23.64
2023-04-18T16:41:31.749Z,23.83
2023-04-18T16:43:58.625Z,23.62
2023-04-18T16:46:25.685Z,23.99
2023-04-18T16:48:52.743Z,23.60
2023-04-18T16:51:19.688Z,23.53
2023-04-18T16:53:46.918Z,23.78
2023-04-18T16:56:13.702Z,23.67
2023-04-18T16:58:41.094Z,23.62
2023-04-18T17:01:10.546Z,24.03
2023-04-18T17:03:37.638Z,23.60
2023-04-18T17:06:04.954Z,23.92
2023-04-18T17:08:33.789Z,24.06
2023-04-18T17:11:02.295Z,23.56
2023-04-18T17:13:31.758Z,23.78
2023-04-18T17:15:58.478Z,23.70
2023-04-18T17:18:25.290Z,23.56
2023-04-18T17:20:52.538Z,23.69
2023-04-18T17:23:19.388Z,24.06
2023-04-18T17:25:46.364Z,23.97
2023-04-18T17:28:14.168Z,23.82
2023-04-18T17:30:44.398Z,24.62
2023-04-18T17:33:11.434Z,24.56
2023-04-18T17:35:41.500Z,24.22
2023-04-18T17:38:09.177Z,24.15
2023-04-18T17:40:36.011Z,24.19
2023-04-18T17:43:02.911Z,24.30
2023-04-18T17:45:30.058Z,24.57
2023-04-18T17:47:58.420Z,25.09
2023-04-18T17:50:25.375Z,25.19
2023-04-18T17:52:52.133Z,24.99
2023-04-18T17:55:19.130Z,25.03
2023-04-18T17:57:46.527Z,25.21
2023-04-18T18:00:14.715Z,25.33
2023-04-18T18:02:42.817Z,25.59
2023-04-18T18:05:13.358Z,25.11
2023-04-18T18:07:43.085Z,25.62
2023-04-18T18:10:11.470Z,25.66
2023-04-18T18:12:40.048Z,25.09
2023-04-18T18:15:08.331Z,24.94
2023-04-18T18:17:35.328Z,25.18
2023-04-18T18:20:02.134Z,24.86
2023-04-18T18:22:28.940Z,24.77
2023-04-18T18:24:56.767Z,25.09
2023-04-18T18:27:23.641Z,25.56
2023-04-18T18:29:50.533Z,25.20
2023-04-18T18:32:17.493Z,25.47
2023-04-18T18:34:44.265Z,25.65
2023-04-18T18:37:11.054Z,25.27
2023-04-18T18:39:38.017Z,25.60
2023-04-18T18:42:04.823Z,25.88
2023-04-18T18:44:32.641Z,26.14
2023-04-18T18:46:59.981Z,26.12
2023-04-18T18:49:26.962Z,26.05
2023-04-18T18:51:53.782Z,26.02
2023-04-18T18:54:20.604Z,26.21
2023-04-18T18:56:47.430Z,26.07
2023-04-18T18:59:15.908Z,26.18
2023-04-18T19:01:43.045Z,26.35
2023-04-18T19:04:10.149Z,26.45
2023-04-18T19:06:37.209Z,26.39
2023-04-18T19:09:05.411Z,26.15
2023-04-18T19:11:32.315Z,26.35
2023-04-18T19:13:59.170Z,26.08
2023-04-18T19:16:26.281Z,26.27
2023-04-18T19:18:53.149Z,26.61
2023-04-18T19:21:20.434Z,27.32
2023-04-18T19:23:47.358Z,27.21
2023-04-18T19:26:14.191Z,27.11
2023-04-18T19:28:41.613Z,27.28
2023-04-18T19:31:09.725Z,27.06
2023-04-18T19:33:36.499Z,27.05
2023-04-18T19:36:03.486Z,26.99
2023-04-18T19:38:30.484Z,27.30
2023-04-18T19:40:57.353Z,27.34
2023-04-18T19:43:24.111Z,27.21
2023-04-18T19:45:52.623Z,27.24
2023-04-18T19:48:21.580Z,27.21
2023-04-18T19:50:49.694Z,27.18
2023-04-18T19:53:19.096Z,27.16
2023-04-18T19:55:47.517Z,27.24
2023-04-18T19:58:49.144Z,27.29
2023-04-18T20:01:17.229Z,27.30
2023-04-18T20:03:44.313Z,27.36
2023-04-18T20:06:11.421Z,27.16
2023-04-18T20:08:39.636Z,27.36
2023-04-18T20:11:10.754Z,27.17
2023-04-18T20:13:37.902Z,27.13
2023-04-18T20:16:05.481Z,27.30
2023-04-18T20:18:32.576Z,27.22
2023-04-18T20:20:59.365Z,27.05
2023-04-18T20:23:26.365Z,27.22
2023-04-18T20:25:53.551Z,27.31
2023-04-18T20:28:20.608Z,27.31
2023-04-18T20:30:48.133Z,27.46
2023-04-18T20:33:14.991Z,27.42
2023-04-18T20:35:41.919Z,27.56
2023-04-18T20:38:11.189Z,27.62
2023-04-18T20:40:43.061Z,27.66
2023-04-18T20:43:10.141Z,27.81
2023-04-18T20:45:42.903Z,27.76
2023-04-18T20:48:10.331Z,27.79
2023-04-18T20:50:37.228Z,28.06
2023-04-18T20:53:04.143Z,27.86
2023-04-18T20:55:31.188Z,28.32
2023-04-18T20:57:58.756Z,28.50
2023-04-18T21:00:25.977Z,28.71
2023-04-18T21:02:52.960Z,28.64
2023-04-18T21:05:20.275Z,28.63
2023-04-18T21:07:47.115Z,28.97
2023-04-18T21:10:13.942Z,29.12
2023-04-18T21:12:40.663Z,29.25
2023-04-18T21:15:08.080Z,29.29
2023-04-18T21:17:34.981Z,29.08
2023-04-18T21:20:01.807Z,29.25
2023-04-18T21:22:28.592Z,29.05
2023-04-18T21:24:55.455Z,29.16
2023-04-18T21:27:22.818Z,29.10
2023-04-18T21:29:50.382Z,29.29
2023-04-18T21:32:17.382Z,29.48
2023-04-18T21:34:44.336Z,29.65
2023-04-18T21:37:11.127Z,29.83
2023-04-18T21:39:38.466Z,29.86
2023-04-18T21:42:05.378Z,30.16
2023-04-18T21:44:32.278Z,30.19
2023-04-18T21:46:59.274Z,30.24
2023-04-18T21:49:26.006Z,29.99
2023-04-18T21:51:52.769Z,30.02
2023-04-18T21:54:20.347Z,29.92
2023-04-18T21:56:47.127Z,30.11
2023-04-18T21:59:13.844Z,30.15
2023-04-18T22:01:40.857Z,30.31
2023-04-18T22:04:07.932Z,30.42
2023-04-18T22:06:34.856Z,30.56
2023-04-18T22:09:02.287Z,30.46
2023-04-18T22:11:29.129Z,30.21
2023-04-18T22:13:58.185Z,30.22
2023-04-18T22:16:25.291Z,30.30
2023-04-18T22:18:52.216Z,30.74
2023-04-18T22:21:18.968Z,31.12
2023-04-18T22:23:45.955Z,31.09
2023-04-18T22:26:12.852Z,31.48
2023-04-18T22:28:39.645Z,31.38
2023-04-18T22:31:06.746Z,31.35
2023-04-18T22:33:33.505Z,31.74
2023-04-18T22:36:00.902Z,31.65
2023-04-18T22:38:27.863Z,31.93
2023-04-18T22:40:54.608Z,32.09
2023-04-18T22:43:23.759Z,32.20
2023-04-18T22:45:51.263Z,32.34
2023-04-18T22:48:18.352Z,32.38
2023-04-18T22:50:46.433Z,32.84
2023-04-18T22:53:14.428Z,32.97
2023-04-18T22:55:41.888Z,33.38
2023-04-18T22:58:09.350Z,33.45
2023-04-18T23:00:36.495Z,33.32
2023-04-18T23:03:03.452Z,33.62
2023-04-18T23:05:30.541Z,33.59
2023-04-18T23:07:59.585Z,33.72
2023-04-18T23:10:27.153Z,33.83
2023-04-18T23:12:53.923Z,34.03
2023-04-18T23:15:25.626Z,34.11
2023-04-18T23:18:01.737Z,34.03
2023-04-18T23:20:28.678Z,34.46
2023-04-18T23:22:56.109Z,34.24
2023-04-18T23:25:22.936Z,34.38
2023-04-18T23:27:49.854Z,34.52
2023-04-18T23:30:17.292Z,34.68
2023-04-18T23:32:44.134Z,34.84
2023-04-18T23:35:11.465Z,35.13
2023-04-18T23:37:38.276Z,34.77
2023-04-18T23:40:07.014Z,34.67
2023-04-18T23:42:37.172Z,34.37
2023-04-18T23:45:05.807Z,34.72
2023-04-18T23:47:32.696Z,34.58
2023-04-18T23:49:59.532Z,34.55
2023-04-18T23:52:26.349Z,34.71
2023-04-18T23:54:53.232Z,35.29
2023-04-18T23:57:19.934Z,35.21
2023-04-18T23:59:46.771Z,35.65
